sensor_id;sensor_type;location;lat;lon;timestamp;temperature;humidity
64987;DHT22;67903;52.108;9.358;2024-03-25T00:02:41;5.10;89.40
64987;DHT22;67903;52.108;9.358;2024-03-25T00:05:26;5.00;90.80
64987;DHT22;67903;52.108;9.358;2024-03-25T00:08:11;5.00;91.40
64987;DHT22;67903;52.108;9.358;2024-03-25T00:10:56;4.90;92.10
64987;DHT22;67903;52.108;9.358;2024-03-25T00:13:40;4.90;91.30
64987;DHT22;67903;52.108;9.358;2024-03-25T00:16:25;4.90;91.80
64987;DHT22;67903;52.108;9.358;2024-03-25T00:19:10;4.90;91.40
64987;DHT22;67903;52.108;9.358;2024-03-25T00:21:54;4.90;91.60
64987;DHT22;67903;52.108;9.358;2024-03-25T00:24:39;4.80;91.60
64987;DHT22;67903;52.108;9.358;2024-03-25T00:27:23;4.80;91.60
64987;DHT22;67903;52.108;9.358;2024-03-25T00:30:08;4.90;91.60
64987;DHT22;67903;52.108;9.358;2024-03-25T00:32:54;4.80;91.90
64987;DHT22;67903;52.108;9.358;2024-03-25T00:35:38;4.70;91.90
64987;DHT22;67903;52.108;9.358;2024-03-25T00:38:23;4.90;91.70
64987;DHT22;67903;52.108;9.358;2024-03-25T00:41:08;4.80;92.10
64987;DHT22;67903;52.108;9.358;2024-03-25T00:43:53;4.80;92.10
64987;DHT22;67903;52.108;9.358;2024-03-25T00:46:37;4.90;91.10
64987;DHT22;67903;52.108;9.358;2024-03-25T00:49:22;4.90;91.70
64987;DHT22;67903;52.108;9.358;2024-03-25T00:52:07;4.90;91.30
64987;DHT22;67903;52.108;9.358;2024-03-25T00:54:52;4.80;91.70
64987;DHT22;67903;52.108;9.358;2024-03-25T00:57:36;4.80;91.80
64987;DHT22;67903;52.108;9.358;2024-03-25T01:00:21;5.00;89.30
64987;DHT22;67903;52.108;9.358;2024-03-25T01:03:06;4.90;90.80
64987;DHT22;67903;52.108;9.358;2024-03-25T01:05:50;5.00;90.00
64987;DHT22;67903;52.108;9.358;2024-03-25T01:08:35;5.00;89.10
64987;DHT22;67903;52.108;9.358;2024-03-25T01:11:20;4.70;92.20
64987;DHT22;67903;52.108;9.358;2024-03-25T01:14:05;4.70;93.50
64987;DHT22;67903;52.108;9.358;2024-03-25T01:16:50;4.70;94.50
64987;DHT22;67903;52.108;9.358;2024-03-25T01:19:34;4.70;94.90
64987;DHT22;67903;52.108;9.358;2024-03-25T01:22:19;4.60;95.20
64987;DHT22;67903;52.108;9.358;2024-03-25T01:25:04;4.60;94.80
64987;DHT22;67903;52.108;9.358;2024-03-25T01:27:49;4.60;95.40
64987;DHT22;67903;52.108;9.358;2024-03-25T01:30:33;4.70;93.90
64987;DHT22;67903;52.108;9.358;2024-03-25T01:33:19;4.60;93.20
64987;DHT22;67903;52.108;9.358;2024-03-25T01:36:04;4.70;93.00
64987;DHT22;67903;52.108;9.358;2024-03-25T01:38:50;4.70;92.60
64987;DHT22;67903;52.108;9.358;2024-03-25T01:41:34;4.70;93.50
64987;DHT22;67903;52.108;9.358;2024-03-25T01:44:19;4.70;93.20
64987;DHT22;67903;52.108;9.358;2024-03-25T01:47:04;4.70;92.80
64987;DHT22;67903;52.108;9.358;2024-03-25T01:49:49;4.70;91.50
64987;DHT22;67903;52.108;9.358;2024-03-25T01:52:38;4.70;92.20
64987;DHT22;67903;52.108;9.358;2024-03-25T01:55:26;4.70;93.10
64987;DHT22;67903;52.108;9.358;2024-03-25T01:58:12;4.70;92.50
64987;DHT22;67903;52.108;9.358;2024-03-25T02:00:56;4.70;92.70
64987;DHT22;67903;52.108;9.358;2024-03-25T02:03:44;4.60;93.50
64987;DHT22;67903;52.108;9.358;2024-03-25T02:06:30;4.60;94.40
64987;DHT22;67903;52.108;9.358;2024-03-25T02:09:16;4.50;94.70
64987;DHT22;67903;52.108;9.358;2024-03-25T02:12:02;4.60;94.80
64987;DHT22;67903;52.108;9.358;2024-03-25T02:14:46;4.50;96.00
64987;DHT22;67903;52.108;9.358;2024-03-25T02:17:31;4.50;96.60
64987;DHT22;67903;52.108;9.358;2024-03-25T02:20:15;4.50;97.60
64987;DHT22;67903;52.108;9.358;2024-03-25T02:23:00;4.40;98.10
64987;DHT22;67903;52.108;9.358;2024-03-25T02:25:52;4.40;98.50
64987;DHT22;67903;52.108;9.358;2024-03-25T02:28:37;4.50;98.70
64987;DHT22;67903;52.108;9.358;2024-03-25T02:31:22;4.40;98.00
64987;DHT22;67903;52.108;9.358;2024-03-25T02:34:06;4.50;97.50
64987;DHT22;67903;52.108;9.358;2024-03-25T02:36:51;4.50;97.60
64987;DHT22;67903;52.108;9.358;2024-03-25T02:39:37;4.50;97.40
64987;DHT22;67903;52.108;9.358;2024-03-25T02:42:21;4.50;98.20
64987;DHT22;67903;52.108;9.358;2024-03-25T02:45:06;4.50;98.10
64987;DHT22;67903;52.108;9.358;2024-03-25T02:47:51;4.50;98.30
64987;DHT22;67903;52.108;9.358;2024-03-25T02:50:36;4.50;97.30
64987;DHT22;67903;52.108;9.358;2024-03-25T02:53:21;4.50;97.50
64987;DHT22;67903;52.108;9.358;2024-03-25T02:56:05;4.50;97.10
64987;DHT22;67903;52.108;9.358;2024-03-25T02:58:50;4.50;97.10
64987;DHT22;67903;52.108;9.358;2024-03-25T03:01:35;4.50;97.00
64987;DHT22;67903;52.108;9.358;2024-03-25T03:04:19;4.70;96.40
64987;DHT22;67903;52.108;9.358;2024-03-25T03:07:04;4.70;95.50
64987;DHT22;67903;52.108;9.358;2024-03-25T03:09:49;4.70;94.30
64987;DHT22;67903;52.108;9.358;2024-03-25T03:12:33;4.70;94.90
64987;DHT22;67903;52.108;9.358;2024-03-25T03:15:18;4.80;94.10
64987;DHT22;67903;52.108;9.358;2024-03-25T03:18:03;4.70;93.20
64987;DHT22;67903;52.108;9.358;2024-03-25T03:20:48;4.80;93.00
64987;DHT22;67903;52.108;9.358;2024-03-25T03:23:33;4.90;92.40
64987;DHT22;67903;52.108;9.358;2024-03-25T03:26:17;4.80;92.10
64987;DHT22;67903;52.108;9.358;2024-03-25T03:29:02;4.90;90.90
64987;DHT22;67903;52.108;9.358;2024-03-25T03:31:47;4.90;90.80
64987;DHT22;67903;52.108;9.358;2024-03-25T03:34:32;4.70;92.00
64987;DHT22;67903;52.108;9.358;2024-03-25T03:37:16;4.80;91.70
64987;DHT22;67903;52.108;9.358;2024-03-25T03:40:01;4.70;92.00
64987;DHT22;67903;52.108;9.358;2024-03-25T03:42:45;4.90;89.90
64987;DHT22;67903;52.108;9.358;2024-03-25T03:45:33;4.90;91.00
64987;DHT22;67903;52.108;9.358;2024-03-25T03:48:19;4.80;90.50
64987;DHT22;67903;52.108;9.358;2024-03-25T03:51:07;4.70;92.20
64987;DHT22;67903;52.108;9.358;2024-03-25T03:53:52;4.70;93.10
64987;DHT22;67903;52.108;9.358;2024-03-25T03:56:37;4.80;89.50
64987;DHT22;67903;52.108;9.358;2024-03-25T03:59:21;4.80;89.90
64987;DHT22;67903;52.108;9.358;2024-03-25T04:02:07;4.70;90.20
64987;DHT22;67903;52.108;9.358;2024-03-25T04:04:52;4.80;89.60
64987;DHT22;67903;52.108;9.358;2024-03-25T04:07:37;4.70;89.60
64987;DHT22;67903;52.108;9.358;2024-03-25T04:10:23;4.70;89.10
64987;DHT22;67903;52.108;9.358;2024-03-25T04:13:08;4.70;89.70
64987;DHT22;67903;52.108;9.358;2024-03-25T04:15:53;4.70;89.90
64987;DHT22;67903;52.108;9.358;2024-03-25T04:18:37;4.70;89.80
64987;DHT22;67903;52.108;9.358;2024-03-25T04:21:22;4.70;90.30
64987;DHT22;67903;52.108;9.358;2024-03-25T04:24:07;4.70;90.00
64987;DHT22;67903;52.108;9.358;2024-03-25T04:26:53;4.70;90.00
64987;DHT22;67903;52.108;9.358;2024-03-25T04:29:37;4.70;89.70
64987;DHT22;67903;52.108;9.358;2024-03-25T04:32:22;4.70;89.00
64987;DHT22;67903;52.108;9.358;2024-03-25T04:35:07;4.80;88.70
64987;DHT22;67903;52.108;9.358;2024-03-25T04:37:52;4.80;89.10
64987;DHT22;67903;52.108;9.358;2024-03-25T04:40:37;4.70;88.50
64987;DHT22;67903;52.108;9.358;2024-03-25T04:43:21;4.80;88.30
64987;DHT22;67903;52.108;9.358;2024-03-25T04:46:06;4.90;88.70
64987;DHT22;67903;52.108;9.358;2024-03-25T04:48:51;4.90;87.80
64987;DHT22;67903;52.108;9.358;2024-03-25T04:51:36;4.80;88.40
64987;DHT22;67903;52.108;9.358;2024-03-25T04:54:20;4.70;89.20
64987;DHT22;67903;52.108;9.358;2024-03-25T04:57:05;4.70;89.80
64987;DHT22;67903;52.108;9.358;2024-03-25T04:59:51;4.70;88.70
64987;DHT22;67903;52.108;9.358;2024-03-25T05:02:36;4.90;87.20
64987;DHT22;67903;52.108;9.358;2024-03-25T05:05:21;4.80;88.70
64987;DHT22;67903;52.108;9.358;2024-03-25T05:08:06;4.90;88.90
64987;DHT22;67903;52.108;9.358;2024-03-25T05:10:50;4.90;87.90
64987;DHT22;67903;52.108;9.358;2024-03-25T05:13:35;4.90;87.70
64987;DHT22;67903;52.108;9.358;2024-03-25T05:16:20;4.90;88.50
64987;DHT22;67903;52.108;9.358;2024-03-25T05:19:04;4.90;87.80
64987;DHT22;67903;52.108;9.358;2024-03-25T05:21:49;4.90;88.10
64987;DHT22;67903;52.108;9.358;2024-03-25T05:24:34;4.80;88.50
64987;DHT22;67903;52.108;9.358;2024-03-25T05:27:18;4.70;89.40
64987;DHT22;67903;52.108;9.358;2024-03-25T05:30:03;4.70;89.40
64987;DHT22;67903;52.108;9.358;2024-03-25T05:32:48;4.70;89.70
64987;DHT22;67903;52.108;9.358;2024-03-25T05:35:32;4.70;89.10
64987;DHT22;67903;52.108;9.358;2024-03-25T05:38:20;4.80;88.90
64987;DHT22;67903;52.108;9.358;2024-03-25T05:41:05;4.70;89.00
64987;DHT22;67903;52.108;9.358;2024-03-25T05:43:50;4.70;89.00
64987;DHT22;67903;52.108;9.358;2024-03-25T05:46:35;4.70;89.10
64987;DHT22;67903;52.108;9.358;2024-03-25T05:49:19;4.70;89.90
64987;DHT22;67903;52.108;9.358;2024-03-25T05:52:04;4.70;90.20
64987;DHT22;67903;52.108;9.358;2024-03-25T05:54:49;4.70;90.40
64987;DHT22;67903;52.108;9.358;2024-03-25T05:57:33;4.70;91.80
64987;DHT22;67903;52.108;9.358;2024-03-25T06:00:18;4.60;92.10
64987;DHT22;67903;52.108;9.358;2024-03-25T06:03:05;4.60;91.80
64987;DHT22;67903;52.108;9.358;2024-03-25T06:05:49;4.70;90.80
64987;DHT22;67903;52.108;9.358;2024-03-25T06:08:34;4.70;91.60
64987;DHT22;67903;52.108;9.358;2024-03-25T06:11:18;4.70;90.20
64987;DHT22;67903;52.108;9.358;2024-03-25T06:14:03;4.70;90.30
64987;DHT22;67903;52.108;9.358;2024-03-25T06:16:48;4.70;90.10
64987;DHT22;67903;52.108;9.358;2024-03-25T06:19:32;4.80;89.30
64987;DHT22;67903;52.108;9.358;2024-03-25T06:22:17;4.90;89.70
64987;DHT22;67903;52.108;9.358;2024-03-25T06:25:01;4.80;89.60
64987;DHT22;67903;52.108;9.358;2024-03-25T06:27:46;4.90;90.00
64987;DHT22;67903;52.108;9.358;2024-03-25T06:30:32;4.90;89.10
64987;DHT22;67903;52.108;9.358;2024-03-25T06:33:34;4.90;88.20
64987;DHT22;67903;52.108;9.358;2024-03-25T06:36:37;4.90;88.80
64987;DHT22;67903;52.108;9.358;2024-03-25T06:39:22;4.90;88.40
64987;DHT22;67903;52.108;9.358;2024-03-25T06:41:50;4.90;85.70
64987;DHT22;67903;52.108;9.358;2024-03-25T06:44:35;4.90;86.30
64987;DHT22;67903;52.108;9.358;2024-03-25T06:47:19;5.00;86.10
64987;DHT22;67903;52.108;9.358;2024-03-25T06:50:04;5.00;85.50
64987;DHT22;67903;52.108;9.358;2024-03-25T06:52:50;5.00;85.60
64987;DHT22;67903;52.108;9.358;2024-03-25T06:55:35;4.90;85.90
64987;DHT22;67903;52.108;9.358;2024-03-25T06:58:20;5.00;85.00
64987;DHT22;67903;52.108;9.358;2024-03-25T07:01:06;5.00;85.20
64987;DHT22;67903;52.108;9.358;2024-03-25T07:03:51;5.00;85.60
64987;DHT22;67903;52.108;9.358;2024-03-25T07:06:38;5.10;85.40
64987;DHT22;67903;52.108;9.358;2024-03-25T07:09:22;5.20;84.80
64987;DHT22;67903;52.108;9.358;2024-03-25T07:12:08;5.20;84.40
64987;DHT22;67903;52.108;9.358;2024-03-25T07:14:53;5.30;84.40
64987;DHT22;67903;52.108;9.358;2024-03-25T07:17:38;5.30;83.70
64987;DHT22;67903;52.108;9.358;2024-03-25T07:20:24;5.30;84.10
64987;DHT22;67903;52.108;9.358;2024-03-25T07:23:15;5.30;83.80
64987;DHT22;67903;52.108;9.358;2024-03-25T07:26:00;5.30;82.80
64987;DHT22;67903;52.108;9.358;2024-03-25T07:28:44;5.50;81.50
64987;DHT22;67903;52.108;9.358;2024-03-25T07:31:29;5.50;81.20
64987;DHT22;67903;52.108;9.358;2024-03-25T07:34:17;5.50;82.40
64987;DHT22;67903;52.108;9.358;2024-03-25T07:37:06;5.60;81.20
64987;DHT22;67903;52.108;9.358;2024-03-25T07:39:51;5.60;81.50
64987;DHT22;67903;52.108;9.358;2024-03-25T07:42:37;5.70;81.40
64987;DHT22;67903;52.108;9.358;2024-03-25T07:45:21;5.70;80.30
64987;DHT22;67903;52.108;9.358;2024-03-25T07:48:06;5.70;80.30
64987;DHT22;67903;52.108;9.358;2024-03-25T07:50:52;5.80;79.00
64987;DHT22;67903;52.108;9.358;2024-03-25T07:53:37;5.70;78.50
64987;DHT22;67903;52.108;9.358;2024-03-25T07:56:21;5.80;78.40
64987;DHT22;67903;52.108;9.358;2024-03-25T07:59:06;5.80;78.20
64987;DHT22;67903;52.108;9.358;2024-03-25T08:01:50;5.90;77.30
64987;DHT22;67903;52.108;9.358;2024-03-25T08:04:35;5.90;76.90
64987;DHT22;67903;52.108;9.358;2024-03-25T08:07:24;5.90;76.90
64987;DHT22;67903;52.108;9.358;2024-03-25T08:10:13;6.00;75.60
64987;DHT22;67903;52.108;9.358;2024-03-25T08:12:58;6.00;76.50
64987;DHT22;67903;52.108;9.358;2024-03-25T08:15:44;6.10;77.50
64987;DHT22;67903;52.108;9.358;2024-03-25T08:18:33;6.20;75.60
64987;DHT22;67903;52.108;9.358;2024-03-25T08:21:23;6.20;76.00
64987;DHT22;67903;52.108;9.358;2024-03-25T08:24:09;6.20;74.30
64987;DHT22;67903;52.108;9.358;2024-03-25T08:26:56;6.20;74.60
64987;DHT22;67903;52.108;9.358;2024-03-25T08:29:44;6.20;73.30
64987;DHT22;67903;52.108;9.358;2024-03-25T08:32:28;6.30;73.20
64987;DHT22;67903;52.108;9.358;2024-03-25T08:35:13;6.30;73.30
64987;DHT22;67903;52.108;9.358;2024-03-25T08:37:58;6.40;72.30
64987;DHT22;67903;52.108;9.358;2024-03-25T08:40:42;6.40;72.10
64987;DHT22;67903;52.108;9.358;2024-03-25T08:43:30;6.40;71.90
64987;DHT22;67903;52.108;9.358;2024-03-25T08:46:15;6.50;71.60
64987;DHT22;67903;52.108;9.358;2024-03-25T08:49:00;6.50;69.70
64987;DHT22;67903;52.108;9.358;2024-03-25T08:51:44;6.50;69.40
64987;DHT22;67903;52.108;9.358;2024-03-25T08:54:29;6.50;70.50
64987;DHT22;67903;52.108;9.358;2024-03-25T08:57:14;6.70;70.00
64987;DHT22;67903;52.108;9.358;2024-03-25T08:59:59;6.70;68.60
64987;DHT22;67903;52.108;9.358;2024-03-25T09:02:43;6.80;69.80
64987;DHT22;67903;52.108;9.358;2024-03-25T09:05:28;6.70;69.60
64987;DHT22;67903;52.108;9.358;2024-03-25T09:08:13;6.60;70.40
64987;DHT22;67903;52.108;9.358;2024-03-25T09:10:59;6.70;66.80
64987;DHT22;67903;52.108;9.358;2024-03-25T09:13:51;6.60;65.70
64987;DHT22;67903;52.108;9.358;2024-03-25T09:16:35;6.70;67.20
64987;DHT22;67903;52.108;9.358;2024-03-25T09:19:20;6.80;67.90
64987;DHT22;67903;52.108;9.358;2024-03-25T09:22:05;6.90;67.90
64987;DHT22;67903;52.108;9.358;2024-03-25T09:24:49;6.90;63.50
64987;DHT22;67903;52.108;9.358;2024-03-25T09:27:34;6.90;64.20
64987;DHT22;67903;52.108;9.358;2024-03-25T09:30:18;6.90;66.80
64987;DHT22;67903;52.108;9.358;2024-03-25T09:33:03;6.90;67.60
64987;DHT22;67903;52.108;9.358;2024-03-25T09:35:48;6.90;66.40
64987;DHT22;67903;52.108;9.358;2024-03-25T09:38:33;6.80;65.70
64987;DHT22;67903;52.108;9.358;2024-03-25T09:41:17;6.80;67.40
64987;DHT22;67903;52.108;9.358;2024-03-25T09:44:03;6.90;65.30
64987;DHT22;67903;52.108;9.358;2024-03-25T09:46:51;6.90;66.90
64987;DHT22;67903;52.108;9.358;2024-03-25T09:49:35;7.00;65.10
64987;DHT22;67903;52.108;9.358;2024-03-25T09:52:21;7.00;62.20
64987;DHT22;67903;52.108;9.358;2024-03-25T09:55:06;7.00;63.40
64987;DHT22;67903;52.108;9.358;2024-03-25T09:57:52;7.20;62.20
64987;DHT22;67903;52.108;9.358;2024-03-25T10:00:36;7.20;63.70
64987;DHT22;67903;52.108;9.358;2024-03-25T10:03:21;7.20;63.70
64987;DHT22;67903;52.108;9.358;2024-03-25T10:06:06;7.30;64.00
64987;DHT22;67903;52.108;9.358;2024-03-25T10:08:57;7.40;64.00
64987;DHT22;67903;52.108;9.358;2024-03-25T10:11:42;7.50;63.20
64987;DHT22;67903;52.108;9.358;2024-03-25T10:14:26;7.50;62.80
64987;DHT22;67903;52.108;9.358;2024-03-25T10:17:11;7.60;63.30
64987;DHT22;67903;52.108;9.358;2024-03-25T10:19:56;7.80;62.90
64987;DHT22;67903;52.108;9.358;2024-03-25T10:22:42;7.70;63.00
64987;DHT22;67903;52.108;9.358;2024-03-25T10:25:28;7.80;63.10
64987;DHT22;67903;52.108;9.358;2024-03-25T10:28:13;7.80;63.00
64987;DHT22;67903;52.108;9.358;2024-03-25T10:31:03;7.90;61.60
64987;DHT22;67903;52.108;9.358;2024-03-25T10:33:48;7.80;61.60
64987;DHT22;67903;52.108;9.358;2024-03-25T10:36:33;7.80;62.60
64987;DHT22;67903;52.108;9.358;2024-03-25T10:39:20;7.80;64.10
64987;DHT22;67903;52.108;9.358;2024-03-25T10:42:10;8.00;63.40
64987;DHT22;67903;52.108;9.358;2024-03-25T10:44:57;8.00;63.40
64987;DHT22;67903;52.108;9.358;2024-03-25T10:47:42;8.00;63.60
64987;DHT22;67903;52.108;9.358;2024-03-25T10:50:29;8.10;62.90
64987;DHT22;67903;52.108;9.358;2024-03-25T10:53:16;8.10;63.50
64987;DHT22;67903;52.108;9.358;2024-03-25T10:56:03;8.00;62.40
64987;DHT22;67903;52.108;9.358;2024-03-25T10:58:50;8.00;62.90
64987;DHT22;67903;52.108;9.358;2024-03-25T11:01:35;7.90;62.20
64987;DHT22;67903;52.108;9.358;2024-03-25T11:04:21;7.90;63.10
64987;DHT22;67903;52.108;9.358;2024-03-25T11:07:10;8.00;63.40
64987;DHT22;67903;52.108;9.358;2024-03-25T11:10:04;8.00;61.70
64987;DHT22;67903;52.108;9.358;2024-03-25T11:12:52;8.00;61.80
64987;DHT22;67903;52.108;9.358;2024-03-25T11:15:42;8.00;61.90
64987;DHT22;67903;52.108;9.358;2024-03-25T11:18:27;8.10;62.60
64987;DHT22;67903;52.108;9.358;2024-03-25T11:21:13;8.10;62.40
64987;DHT22;67903;52.108;9.358;2024-03-25T11:24:06;8.10;62.80
64987;DHT22;67903;52.108;9.358;2024-03-25T11:26:52;8.00;63.20
64987;DHT22;67903;52.108;9.358;2024-03-25T11:29:37;8.00;64.60
64987;DHT22;67903;52.108;9.358;2024-03-25T11:32:22;8.10;65.10
64987;DHT22;67903;52.108;9.358;2024-03-25T11:35:06;8.10;65.20
64987;DHT22;67903;52.108;9.358;2024-03-25T11:37:51;8.30;65.40
64987;DHT22;67903;52.108;9.358;2024-03-25T11:40:36;8.20;64.30
64987;DHT22;67903;52.108;9.358;2024-03-25T11:43:22;8.10;65.90
64987;DHT22;67903;52.108;9.358;2024-03-25T11:46:06;8.20;66.30
64987;DHT22;67903;52.108;9.358;2024-03-25T11:48:53;8.30;65.40
64987;DHT22;67903;52.108;9.358;2024-03-25T11:51:37;8.30;65.50
64987;DHT22;67903;52.108;9.358;2024-03-25T11:54:27;8.50;65.90
64987;DHT22;67903;52.108;9.358;2024-03-25T11:57:12;8.40;66.80
64987;DHT22;67903;52.108;9.358;2024-03-25T11:59:58;8.40;66.40
64987;DHT22;67903;52.108;9.358;2024-03-25T12:02:45;8.10;66.20
64987;DHT22;67903;52.108;9.358;2024-03-25T12:05:34;8.00;67.00
64987;DHT22;67903;52.108;9.358;2024-03-25T12:08:19;8.00;67.30
64987;DHT22;67903;52.108;9.358;2024-03-25T12:11:03;8.00;67.00
64987;DHT22;67903;52.108;9.358;2024-03-25T12:14:03;7.90;67.30
64987;DHT22;67903;52.108;9.358;2024-03-25T12:16:49;8.00;67.10
64987;DHT22;67903;52.108;9.358;2024-03-25T12:19:34;8.00;67.50
64987;DHT22;67903;52.108;9.358;2024-03-25T12:22:19;8.10;67.00
64987;DHT22;67903;52.108;9.358;2024-03-25T12:25:05;8.20;66.60
64987;DHT22;67903;52.108;9.358;2024-03-25T12:27:50;8.10;65.90
64987;DHT22;67903;52.108;9.358;2024-03-25T12:30:55;8.20;66.00
64987;DHT22;67903;52.108;9.358;2024-03-25T12:33:46;8.40;65.80
64987;DHT22;67903;52.108;9.358;2024-03-25T12:36:35;8.50;64.60
64987;DHT22;67903;52.108;9.358;2024-03-25T12:39:19;8.30;65.10
64987;DHT22;67903;52.108;9.358;2024-03-25T12:42:05;8.40;66.10
64987;DHT22;67903;52.108;9.358;2024-03-25T12:44:49;8.80;63.70
64987;DHT22;67903;52.108;9.358;2024-03-25T12:47:34;9.10;63.00
64987;DHT22;67903;52.108;9.358;2024-03-25T12:50:19;9.20;64.20
64987;DHT22;67903;52.108;9.358;2024-03-25T12:53:04;9.20;62.40
64987;DHT22;67903;52.108;9.358;2024-03-25T12:55:49;9.20;61.60
64987;DHT22;67903;52.108;9.358;2024-03-25T12:58:34;9.00;62.60
64987;DHT22;67903;52.108;9.358;2024-03-25T13:01:19;9.20;62.30
64987;DHT22;67903;52.108;9.358;2024-03-25T13:04:03;9.10;60.20
64987;DHT22;67903;52.108;9.358;2024-03-25T13:06:48;9.10;61.00
64987;DHT22;67903;52.108;9.358;2024-03-25T13:09:32;9.10;61.40
64987;DHT22;67903;52.108;9.358;2024-03-25T13:12:17;9.00;61.30
64987;DHT22;67903;52.108;9.358;2024-03-25T13:15:02;8.90;62.50
64987;DHT22;67903;52.108;9.358;2024-03-25T13:17:47;8.90;62.70
64987;DHT22;67903;52.108;9.358;2024-03-25T13:20:31;8.90;62.30
64987;DHT22;67903;52.108;9.358;2024-03-25T13:23:17;8.80;62.20
64987;DHT22;67903;52.108;9.358;2024-03-25T13:26:01;8.90;62.80
64987;DHT22;67903;52.108;9.358;2024-03-25T13:28:46;8.90;62.00
64987;DHT22;67903;52.108;9.358;2024-03-25T13:31:30;8.90;62.60
64987;DHT22;67903;52.108;9.358;2024-03-25T13:34:15;9.00;63.80
64987;DHT22;67903;52.108;9.358;2024-03-25T13:37:00;9.00;64.40
64987;DHT22;67903;52.108;9.358;2024-03-25T13:39:45;9.20;62.80
64987;DHT22;67903;52.108;9.358;2024-03-25T13:42:30;9.20;63.50
64987;DHT22;67903;52.108;9.358;2024-03-25T13:45:15;9.50;63.30
64987;DHT22;67903;52.108;9.358;2024-03-25T13:48:00;9.40;62.00
64987;DHT22;67903;52.108;9.358;2024-03-25T13:50:44;9.20;62.20
64987;DHT22;67903;52.108;9.358;2024-03-25T13:53:32;9.20;61.90
64987;DHT22;67903;52.108;9.358;2024-03-25T13:56:16;9.00;62.90
64987;DHT22;67903;52.108;9.358;2024-03-25T13:59:02;9.00;63.30
64987;DHT22;67903;52.108;9.358;2024-03-25T14:01:46;9.00;62.60
64987;DHT22;67903;52.108;9.358;2024-03-25T14:04:31;8.90;62.80
64987;DHT22;67903;52.108;9.358;2024-03-25T14:07:16;9.00;62.60
64987;DHT22;67903;52.108;9.358;2024-03-25T14:10:00;9.00;62.50
64987;DHT22;67903;52.108;9.358;2024-03-25T14:12:45;9.20;61.90
64987;DHT22;67903;52.108;9.358;2024-03-25T14:15:30;8.90;65.00
64987;DHT22;67903;52.108;9.358;2024-03-25T14:18:14;8.90;65.20
64987;DHT22;67903;52.108;9.358;2024-03-25T14:20:59;8.80;64.70
64987;DHT22;67903;52.108;9.358;2024-03-25T14:23:43;8.80;65.00
64987;DHT22;67903;52.108;9.358;2024-03-25T14:26:29;8.70;65.20
64987;DHT22;67903;52.108;9.358;2024-03-25T14:29:14;8.60;65.40
64987;DHT22;67903;52.108;9.358;2024-03-25T14:31:58;8.60;67.60
64987;DHT22;67903;52.108;9.358;2024-03-25T14:34:43;8.70;67.50
64987;DHT22;67903;52.108;9.358;2024-03-25T14:37:28;8.50;65.40
64987;DHT22;67903;52.108;9.358;2024-03-25T14:40:12;8.50;65.50
64987;DHT22;67903;52.108;9.358;2024-03-25T14:42:57;8.50;66.60
64987;DHT22;67903;52.108;9.358;2024-03-25T14:45:42;8.40;66.70
64987;DHT22;67903;52.108;9.358;2024-03-25T14:48:27;8.50;66.00
64987;DHT22;67903;52.108;9.358;2024-03-25T14:51:12;8.50;67.80
64987;DHT22;67903;52.108;9.358;2024-03-25T14:53:56;8.60;66.00
64987;DHT22;67903;52.108;9.358;2024-03-25T14:56:41;8.60;64.90
64987;DHT22;67903;52.108;9.358;2024-03-25T14:59:26;8.80;64.00
64987;DHT22;67903;52.108;9.358;2024-03-25T15:02:11;8.90;64.80
64987;DHT22;67903;52.108;9.358;2024-03-25T15:04:57;8.90;63.60
64987;DHT22;67903;52.108;9.358;2024-03-25T15:07:41;8.90;62.70
64987;DHT22;67903;52.108;9.358;2024-03-25T15:10:26;8.90;63.40
64987;DHT22;67903;52.108;9.358;2024-03-25T15:13:11;8.90;63.80
64987;DHT22;67903;52.108;9.358;2024-03-25T15:15:57;8.90;65.10
64987;DHT22;67903;52.108;9.358;2024-03-25T15:18:41;9.00;64.60
64987;DHT22;67903;52.108;9.358;2024-03-25T15:21:27;9.00;65.20
64987;DHT22;67903;52.108;9.358;2024-03-25T15:24:11;9.10;65.20
64987;DHT22;67903;52.108;9.358;2024-03-25T15:26:56;9.20;62.80
64987;DHT22;67903;52.108;9.358;2024-03-25T15:29:41;9.20;63.20
64987;DHT22;67903;52.108;9.358;2024-03-25T15:32:25;9.30;62.30
64987;DHT22;67903;52.108;9.358;2024-03-25T15:35:10;9.40;63.20
64987;DHT22;67903;52.108;9.358;2024-03-25T15:37:54;9.20;61.80
64987;DHT22;67903;52.108;9.358;2024-03-25T15:40:39;9.20;61.70
64987;DHT22;67903;52.108;9.358;2024-03-25T15:43:25;9.10;61.00
64987;DHT22;67903;52.108;9.358;2024-03-25T15:46:10;9.00;62.20
64987;DHT22;67903;52.108;9.358;2024-03-25T15:48:55;8.90;62.60
64987;DHT22;67903;52.108;9.358;2024-03-25T15:51:39;8.90;61.20
64987;DHT22;67903;52.108;9.358;2024-03-25T15:54:24;9.00;61.40
64987;DHT22;67903;52.108;9.358;2024-03-25T15:57:09;9.00;60.60
64987;DHT22;67903;52.108;9.358;2024-03-25T15:59:53;9.10;60.10
64987;DHT22;67903;52.108;9.358;2024-03-25T16:02:38;9.20;61.00
64987;DHT22;67903;52.108;9.358;2024-03-25T16:05:23;9.30;62.10
64987;DHT22;67903;52.108;9.358;2024-03-25T16:08:09;9.40;62.10
64987;DHT22;67903;52.108;9.358;2024-03-25T16:10:53;9.40;60.30
64987;DHT22;67903;52.108;9.358;2024-03-25T16:13:39;9.50;59.60
64987;DHT22;67903;52.108;9.358;2024-03-25T16:16:24;9.50;58.20
64987;DHT22;67903;52.108;9.358;2024-03-25T16:19:10;9.40;58.00
64987;DHT22;67903;52.108;9.358;2024-03-25T16:21:55;9.40;58.10
64987;DHT22;67903;52.108;9.358;2024-03-25T16:24:40;9.40;59.30
64987;DHT22;67903;52.108;9.358;2024-03-25T16:27:24;9.40;58.30
64987;DHT22;67903;52.108;9.358;2024-03-25T16:30:10;9.40;59.20
64987;DHT22;67903;52.108;9.358;2024-03-25T16:32:54;9.40;60.10
64987;DHT22;67903;52.108;9.358;2024-03-25T16:35:39;9.30;59.40
64987;DHT22;67903;52.108;9.358;2024-03-25T16:38:24;9.20;57.40
64987;DHT22;67903;52.108;9.358;2024-03-25T16:41:08;8.90;56.70
64987;DHT22;67903;52.108;9.358;2024-03-25T16:43:53;8.80;60.00
64987;DHT22;67903;52.108;9.358;2024-03-25T16:46:37;8.80;61.60
64987;DHT22;67903;52.108;9.358;2024-03-25T16:49:24;8.80;61.00
64987;DHT22;67903;52.108;9.358;2024-03-25T16:52:08;8.80;59.80
64987;DHT22;67903;52.108;9.358;2024-03-25T16:54:53;8.70;60.10
64987;DHT22;67903;52.108;9.358;2024-03-25T16:57:38;8.60;61.20
64987;DHT22;67903;52.108;9.358;2024-03-25T17:00:22;8.60;60.40
64987;DHT22;67903;52.108;9.358;2024-03-25T17:03:07;8.50;60.60
64987;DHT22;67903;52.108;9.358;2024-03-25T17:05:52;8.40;62.30
64987;DHT22;67903;52.108;9.358;2024-03-25T17:08:37;8.30;62.80
64987;DHT22;67903;52.108;9.358;2024-03-25T17:11:23;8.20;62.50
64987;DHT22;67903;52.108;9.358;2024-03-25T17:14:07;8.10;62.20
64987;DHT22;67903;52.108;9.358;2024-03-25T17:16:52;8.00;65.00
64987;DHT22;67903;52.108;9.358;2024-03-25T17:19:36;8.00;62.70
64987;DHT22;67903;52.108;9.358;2024-03-25T17:22:21;7.80;63.00
64987;DHT22;67903;52.108;9.358;2024-03-25T17:25:06;7.80;65.40
64987;DHT22;67903;52.108;9.358;2024-03-25T17:27:51;7.60;65.30
64987;DHT22;67903;52.108;9.358;2024-03-25T17:30:36;7.60;65.10
64987;DHT22;67903;52.108;9.358;2024-03-25T17:33:21;7.50;66.90
64987;DHT22;67903;52.108;9.358;2024-03-25T17:36:06;7.40;66.00
64987;DHT22;67903;52.108;9.358;2024-03-25T17:38:55;7.30;67.50
64987;DHT22;67903;52.108;9.358;2024-03-25T17:41:40;7.30;65.00